createdAt,value
2018-07-31T00:00:21.068Z,21.20
2018-07-31T00:02:49.620Z,21.30
2018-07-31T00:05:18.660Z,21.20
2018-07-31T00:07:47.449Z,21.20
2018-07-31T00:10:16.376Z,21.20
2018-07-31T00:12:45.721Z,21.10
2018-07-31T00:15:14.293Z,21.20
2018-07-31T00:17:42.866Z,21.20
2018-07-31T00:20:11.436Z,21.10
2018-07-31T00:22:39.962Z,21.10
2018-07-31T00:25:08.534Z,21.00
2018-07-31T00:27:37.676Z,21.00
2018-07-31T00:30:08.278Z,21.00
2018-07-31T00:32:37.313Z,20.90
2018-07-31T00:35:06.729Z,20.80
2018-07-31T00:37:35.245Z,20.80
2018-07-31T00:40:03.821Z,20.80
2018-07-31T00:42:32.354Z,20.80
2018-07-31T00:45:00.875Z,20.80
2018-07-31T00:49:57.695Z,20.70
2018-07-31T00:52:26.770Z,20.60
2018-07-31T00:54:55.308Z,20.50
2018-07-31T00:59:52.268Z,20.40
2018-07-31T01:02:21.122Z,20.50
2018-07-31T01:04:49.645Z,20.50
2018-07-31T01:09:46.980Z,20.30
2018-07-31T01:12:15.509Z,20.30
2018-07-31T01:22:09.302Z,20.30
2018-07-31T01:24:37.870Z,20.20
2018-07-31T01:27:07.001Z,20.20
2018-07-31T01:29:35.527Z,20.20
2018-07-31T01:32:04.112Z,20.20
2018-07-31T01:34:33.244Z,20.10
2018-07-31T01:37:01.777Z,19.90
2018-07-31T01:39:30.305Z,20.00
2018-07-31T01:42:00.153Z,20.00
2018-07-31T01:54:22.549Z,20.00
2018-07-31T01:56:51.100Z,20.00
2018-07-31T01:59:19.613Z,19.90
2018-07-31T02:01:48.161Z,19.90
2018-07-31T02:04:17.171Z,19.80
2018-07-31T02:06:46.385Z,19.80
2018-07-31T02:14:11.425Z,19.70
2018-07-31T02:16:39.953Z,19.70
2018-07-31T02:19:08.482Z,19.70
2018-07-31T02:21:37.036Z,19.70
2018-07-31T02:24:05.792Z,19.70
2018-07-31T02:26:34.346Z,19.70
2018-07-31T02:29:02.842Z,19.70
2018-07-31T02:33:59.611Z,19.70
2018-07-31T02:36:28.778Z,19.60
2018-07-31T02:38:57.334Z,19.50
2018-07-31T02:41:25.929Z,19.50
2018-07-31T02:43:54.488Z,19.50
2018-07-31T02:46:23.069Z,19.50
2018-07-31T02:48:52.079Z,19.40
2018-07-31T02:51:20.643Z,19.30
2018-07-31T02:53:49.228Z,19.20
2018-07-31T02:56:17.758Z,19.20
2018-07-31T02:58:46.371Z,19.20
2018-07-31T03:01:14.897Z,19.20
2018-07-31T03:03:43.585Z,19.30
2018-07-31T03:06:12.149Z,19.30
2018-07-31T03:08:40.733Z,19.30
2018-07-31T03:11:15.886Z,19.20
2018-07-31T03:13:44.448Z,19.20
2018-07-31T03:16:13.043Z,19.10
2018-07-31T03:18:41.639Z,19.20
2018-07-31T03:21:10.149Z,19.20
2018-07-31T03:23:38.737Z,19.20
2018-07-31T03:26:07.269Z,19.20
2018-07-31T03:28:35.849Z,19.20
2018-07-31T03:31:04.416Z,19.10
2018-07-31T03:33:32.969Z,19.00
2018-07-31T03:36:01.499Z,19.00
2018-07-31T03:38:30.033Z,19.00
2018-07-31T03:40:58.577Z,19.00
2018-07-31T03:43:27.142Z,19.00
2018-07-31T03:45:55.645Z,19.00
2018-07-31T03:48:24.192Z,19.00
2018-07-31T03:50:52.716Z,19.00
2018-07-31T03:53:21.753Z,19.00
2018-07-31T03:55:50.233Z,19.10
2018-07-31T03:58:18.713Z,19.00
2018-07-31T04:00:47.229Z,19.00
2018-07-31T04:03:15.841Z,19.00
2018-07-31T04:05:44.383Z,19.00
2018-07-31T04:10:41.108Z,19.00
2018-07-31T04:13:10.237Z,19.00
2018-07-31T04:18:06.964Z,19.00
2018-07-31T04:20:35.549Z,19.00
2018-07-31T04:23:04.060Z,19.00
2018-07-31T04:25:33.253Z,19.00
2018-07-31T04:28:01.776Z,19.10
2018-07-31T04:30:30.316Z,19.10
2018-07-31T04:32:58.843Z,19.10
2018-07-31T04:35:27.412Z,18.90
2018-07-31T04:37:56.465Z,19.00
2018-07-31T04:40:25.822Z,19.00
2018-07-31T04:42:54.821Z,19.00
2018-07-31T04:45:23.393Z,19.10
2018-07-31T04:47:52.496Z,19.20
2018-07-31T04:50:21.703Z,19.20
2018-07-31T04:52:50.551Z,19.20
2018-07-31T04:55:19.102Z,19.30
2018-07-31T04:57:47.631Z,19.30
2018-07-31T05:02:45.601Z,19.30
2018-07-31T05:05:14.165Z,19.40
2018-07-31T05:07:43.349Z,19.40
2018-07-31T05:10:13.572Z,19.40
2018-07-31T05:12:43.284Z,19.40
2018-07-31T05:15:12.348Z,19.60
2018-07-31T05:17:41.082Z,19.60
2018-07-31T05:20:10.789Z,19.70
2018-07-31T05:22:40.500Z,19.70
2018-07-31T05:25:09.099Z,19.60
2018-07-31T05:27:37.621Z,19.70
2018-07-31T05:30:09.870Z,19.80
2018-07-31T05:35:08.501Z,19.80
2018-07-31T05:37:37.315Z,20.10
2018-07-31T05:40:07.229Z,20.90
2018-07-31T05:42:35.944Z,22.50
2018-07-31T05:45:04.817Z,23.80
2018-07-31T05:47:33.437Z,25.20
2018-07-31T05:54:58.494Z,26.80
2018-07-31T05:57:27.106Z,27.40
2018-07-31T05:59:55.657Z,27.80
2018-07-31T06:04:52.521Z,28.10
2018-07-31T06:07:21.133Z,27.90
2018-07-31T06:09:49.733Z,27.60
2018-07-31T06:12:18.302Z,27.10
2018-07-31T06:14:46.964Z,26.70
2018-07-31T06:17:15.573Z,26.20
2018-07-31T06:19:44.145Z,25.80
2018-07-31T06:22:12.694Z,25.50
2018-07-31T06:27:09.652Z,25.00
2018-07-31T06:29:38.208Z,24.90
2018-07-31T06:32:06.741Z,24.80
2018-07-31T06:34:35.381Z,24.80
2018-07-31T06:37:03.989Z,24.80
2018-07-31T06:39:32.571Z,24.90
2018-07-31T06:42:01.154Z,25.00
2018-07-31T06:44:29.760Z,25.10
2018-07-31T06:46:58.298Z,25.20
2018-07-31T06:49:26.857Z,25.20
2018-07-31T06:51:55.417Z,25.00
2018-07-31T06:56:52.200Z,25.30
2018-07-31T06:59:20.828Z,25.60
2018-07-31T07:01:49.397Z,25.80
2018-07-31T07:04:18.049Z,26.10
2018-07-31T07:06:46.602Z,26.20
2018-07-31T07:11:43.400Z,26.50
2018-07-31T07:14:11.982Z,26.60
2018-07-31T07:16:40.525Z,26.70
2018-07-31T07:19:08.733Z,26.70
2018-07-31T07:21:37.424Z,26.80
2018-07-31T07:24:05.979Z,27.10
2018-07-31T07:26:34.718Z,27.30
2018-07-31T07:29:03.307Z,27.40
2018-07-31T07:31:31.925Z,27.50
2018-07-31T07:34:00.635Z,27.50
2018-07-31T07:36:29.287Z,27.40
2018-07-31T07:38:57.841Z,27.40
2018-07-31T07:41:26.449Z,27.50
2018-07-31T07:43:54.955Z,27.70
2018-07-31T07:46:23.529Z,27.90
2018-07-31T07:48:52.094Z,27.90
2018-07-31T07:51:20.646Z,28.10
2018-07-31T07:53:49.199Z,28.00
2018-07-31T07:56:17.822Z,28.00
2018-07-31T07:58:46.397Z,28.10
2018-07-31T08:01:14.980Z,28.30
2018-07-31T08:03:43.575Z,28.40
2018-07-31T08:06:12.150Z,28.40
2018-07-31T08:08:40.815Z,28.50
2018-07-31T08:11:09.404Z,28.30
2018-07-31T08:13:37.961Z,28.30
2018-07-31T08:16:06.594Z,28.50
2018-07-31T08:18:35.153Z,28.60
2018-07-31T08:21:03.756Z,28.70
2018-07-31T08:23:32.367Z,28.80
2018-07-31T08:26:01.161Z,28.90
2018-07-31T08:28:29.706Z,29.00
2018-07-31T08:30:58.295Z,29.20
2018-07-31T08:33:26.962Z,29.20
2018-07-31T08:38:23.841Z,29.40
2018-07-31T08:40:52.353Z,29.40
2018-07-31T08:43:20.902Z,29.60
2018-07-31T08:45:49.430Z,29.50
2018-07-31T08:48:18.035Z,29.50
2018-07-31T08:50:46.563Z,29.50
2018-07-31T08:53:15.154Z,29.60
2018-07-31T08:55:43.685Z,29.70
2018-07-31T08:58:12.246Z,29.80
2018-07-31T09:00:40.782Z,29.80
2018-07-31T09:03:09.331Z,29.70
2018-07-31T09:05:37.869Z,29.80
2018-07-31T09:08:06.567Z,29.90
2018-07-31T09:10:35.105Z,30.10
2018-07-31T09:13:03.697Z,30.30
2018-07-31T09:15:32.292Z,30.50
2018-07-31T09:18:00.825Z,30.80
2018-07-31T09:20:29.341Z,30.90
2018-07-31T09:22:57.906Z,30.90
2018-07-31T09:25:26.525Z,31.00
2018-07-31T09:27:55.068Z,31.00
2018-07-31T09:30:23.649Z,30.90
2018-07-31T09:32:57.489Z,30.80
2018-07-31T09:35:26.038Z,30.80
2018-07-31T09:37:54.643Z,30.80
2018-07-31T09:40:23.994Z,30.90
2018-07-31T09:45:20.787Z,30.80
2018-07-31T09:47:49.949Z,30.90
2018-07-31T09:50:18.762Z,30.90
2018-07-31T09:52:47.756Z,30.90
2018-07-31T09:55:16.850Z,31.00
2018-07-31T09:57:45.630Z,31.00
2018-07-31T10:00:18.705Z,31.10
2018-07-31T10:02:47.487Z,31.10
2018-07-31T10:05:16.094Z,31.10
2018-07-31T10:07:44.621Z,31.10
2018-07-31T10:10:13.206Z,31.10
2018-07-31T10:15:10.842Z,31.30
2018-07-31T10:17:40.015Z,31.50
2018-07-31T10:20:08.566Z,31.60
2018-07-31T10:22:37.090Z,31.60
2018-07-31T10:25:06.001Z,31.60
2018-07-31T10:27:35.159Z,31.60
2018-07-31T10:30:03.766Z,31.70
2018-07-31T10:32:32.312Z,31.70
2018-07-31T10:37:31.939Z,31.80
2018-07-31T10:40:00.662Z,32.00
2018-07-31T10:42:29.198Z,32.00
2018-07-31T10:47:28.013Z,32.30
2018-07-31T10:52:26.225Z,32.40
2018-07-31T10:54:55.965Z,32.40
2018-07-31T10:57:24.538Z,32.50
2018-07-31T10:59:53.105Z,32.40
2018-07-31T11:02:21.681Z,32.10
2018-07-31T11:07:18.582Z,32.10
2018-07-31T11:09:47.117Z,32.00
2018-07-31T11:14:44.505Z,32.40
2018-07-31T11:17:13.106Z,32.50
2018-07-31T11:19:41.653Z,32.40
2018-07-31T11:22:10.188Z,32.40
2018-07-31T11:24:39.678Z,32.60
2018-07-31T11:27:08.568Z,32.60
2018-07-31T11:29:37.145Z,32.80
2018-07-31T11:32:06.885Z,32.80
2018-07-31T11:34:35.527Z,32.90
2018-07-31T11:37:04.148Z,33.10
2018-07-31T11:39:32.718Z,33.10
2018-07-31T11:42:01.321Z,33.10
2018-07-31T11:44:29.850Z,32.90
2018-07-31T11:49:26.609Z,32.40
2018-07-31T11:51:55.188Z,32.40
2018-07-31T11:54:23.741Z,32.30
2018-07-31T11:56:52.289Z,32.40
2018-07-31T11:59:20.976Z,32.60
2018-07-31T12:01:49.567Z,32.60
2018-07-31T12:04:18.168Z,32.70
2018-07-31T12:06:47.366Z,32.80
2018-07-31T12:09:16.029Z,32.90
2018-07-31T12:11:44.933Z,33.00
2018-07-31T12:14:14.080Z,33.00
2018-07-31T12:19:11.411Z,32.90
2018-07-31T12:21:40.099Z,32.80
2018-07-31T12:24:08.709Z,33.00
2018-07-31T12:26:37.314Z,33.20
2018-07-31T12:31:34.870Z,33.40
2018-07-31T12:34:03.726Z,33.70
2018-07-31T12:36:32.375Z,33.40
2018-07-31T12:39:00.978Z,33.10
2018-07-31T12:41:29.530Z,32.90
2018-07-31T12:46:26.444Z,33.00
2018-07-31T12:48:55.143Z,33.20
2018-07-31T12:51:23.764Z,33.40
2018-07-31T12:53:52.920Z,33.20
2018-07-31T12:56:21.493Z,33.20
2018-07-31T12:58:50.125Z,33.30
2018-07-31T13:01:18.763Z,33.40
2018-07-31T13:03:47.293Z,33.40
2018-07-31T13:06:15.866Z,33.40
2018-07-31T13:08:44.516Z,33.50
2018-07-31T13:11:14.564Z,33.60
2018-07-31T13:13:43.116Z,33.50
2018-07-31T13:16:11.788Z,33.70
2018-07-31T13:18:40.342Z,33.60
2018-07-31T13:21:09.566Z,33.60
2018-07-31T13:23:38.110Z,33.60
2018-07-31T13:26:06.918Z,33.50
2018-07-31T13:28:35.437Z,33.40
2018-07-31T13:31:04.130Z,33.40
2018-07-31T13:33:32.705Z,33.40
2018-07-31T13:36:01.378Z,33.40
2018-07-31T13:38:29.957Z,33.40
2018-07-31T13:40:58.696Z,33.60
2018-07-31T13:43:27.402Z,33.60
2018-07-31T13:45:56.003Z,33.60
2018-07-31T13:48:25.321Z,33.50
2018-07-31T13:50:55.051Z,33.40
2018-07-31T13:53:24.489Z,33.60
2018-07-31T13:55:53.073Z,33.50
2018-07-31T13:58:21.602Z,33.40
2018-07-31T14:03:18.382Z,33.20
2018-07-31T14:05:46.944Z,33.20
2018-07-31T14:08:15.521Z,33.40
2018-07-31T14:13:13.197Z,33.40
2018-07-31T14:15:41.715Z,33.50
2018-07-31T14:18:10.280Z,33.40
2018-07-31T14:20:38.869Z,33.40
2018-07-31T14:23:14.070Z,33.40
2018-07-31T14:25:42.608Z,33.50
2018-07-31T14:28:11.693Z,33.40
2018-07-31T14:30:40.245Z,33.40
2018-07-31T14:33:09.009Z,33.40
2018-07-31T14:35:37.545Z,33.40
2018-07-31T14:38:07.290Z,33.40
2018-07-31T14:40:35.849Z,33.30
2018-07-31T14:43:04.439Z,33.20
2018-07-31T14:45:33.457Z,33.30
2018-07-31T14:48:02.065Z,33.30
2018-07-31T14:50:30.897Z,33.30
2018-07-31T14:53:00.072Z,33.30
2018-07-31T14:55:28.602Z,33.20
2018-07-31T14:57:57.209Z,33.30
2018-07-31T15:00:26.540Z,33.20
2018-07-31T15:05:23.261Z,33.30
2018-07-31T15:07:51.922Z,33.20
2018-07-31T15:10:20.456Z,33.20
2018-07-31T15:12:49.052Z,33.10
2018-07-31T15:15:17.593Z,33.00
2018-07-31T15:17:46.751Z,33.10
2018-07-31T15:20:16.509Z,33.10
2018-07-31T15:22:45.152Z,33.10
2018-07-31T15:25:13.738Z,33.00
2018-07-31T15:27:42.363Z,33.00
2018-07-31T15:30:11.740Z,33.00
2018-07-31T15:32:41.001Z,33.00
2018-07-31T15:37:37.838Z,32.80
2018-07-31T15:40:06.508Z,32.80
2018-07-31T15:42:35.084Z,32.80
2018-07-31T15:45:04.357Z,32.80
2018-07-31T15:47:32.900Z,32.70
2018-07-31T15:52:30.401Z,32.70
2018-07-31T15:54:59.537Z,32.70
2018-07-31T15:57:28.109Z,32.80
2018-07-31T15:59:56.657Z,32.80
2018-07-31T16:04:53.352Z,32.70
2018-07-31T16:07:21.907Z,32.70
2018-07-31T16:12:19.999Z,32.70
2018-07-31T16:14:49.201Z,32.60
2018-07-31T16:17:17.832Z,32.60
2018-07-31T16:22:14.545Z,32.50
2018-07-31T16:24:43.715Z,32.40
2018-07-31T16:27:12.225Z,32.40
2018-07-31T16:29:41.565Z,32.40
2018-07-31T16:32:10.135Z,32.30
2018-07-31T16:34:38.728Z,32.20
2018-07-31T16:37:07.231Z,32.20
2018-07-31T16:39:35.817Z,32.20
2018-07-31T16:42:04.339Z,32.10
2018-07-31T16:44:32.873Z,32.10
2018-07-31T16:47:01.393Z,32.00
2018-07-31T16:51:58.089Z,32.00
2018-07-31T16:54:26.637Z,32.10
2018-07-31T16:59:23.380Z,32.10
2018-07-31T17:01:52.089Z,32.00
2018-07-31T17:06:48.839Z,31.90
2018-07-31T17:11:46.222Z,31.90
2018-07-31T17:19:11.814Z,31.70
2018-07-31T17:21:40.342Z,31.60
2018-07-31T17:26:37.696Z,31.50
2018-07-31T17:29:06.204Z,31.40
2018-07-31T17:34:03.006Z,31.50
2018-07-31T17:36:32.235Z,31.50
2018-07-31T17:39:02.763Z,31.40
2018-07-31T17:41:32.009Z,31.30
2018-07-31T17:44:00.569Z,31.10
2018-07-31T17:48:58.022Z,31.00
2018-07-31T17:51:27.144Z,30.90
2018-07-31T17:53:56.573Z,31.00
2018-07-31T17:56:25.142Z,31.00
2018-07-31T17:58:54.293Z,30.90
2018-07-31T18:01:22.853Z,30.80
2018-07-31T18:03:51.386Z,30.80
2018-07-31T18:06:20.570Z,30.70
2018-07-31T18:08:50.301Z,30.50
2018-07-31T18:16:17.069Z,30.30
2018-07-31T18:18:47.536Z,30.20
2018-07-31T18:21:16.757Z,30.30
2018-07-31T18:23:45.380Z,30.20
2018-07-31T18:26:14.118Z,30.00
2018-07-31T18:28:42.700Z,29.90
2018-07-31T18:31:12.001Z,29.80
2018-07-31T18:33:40.578Z,29.70
2018-07-31T18:36:09.096Z,29.60
2018-07-31T18:40:59.783Z,29.50
2018-07-31T18:43:28.317Z,29.30
2018-07-31T18:45:56.851Z,29.20
2018-07-31T18:48:25.382Z,29.10
2018-07-31T18:50:54.529Z,29.10
2018-07-31T18:53:23.129Z,29.20
2018-07-31T18:55:51.652Z,29.10
2018-07-31T18:58:20.776Z,28.90
2018-07-31T19:00:49.337Z,28.70
2018-07-31T19:05:46.197Z,28.60
2018-07-31T19:08:15.345Z,28.50
2018-07-31T19:10:43.893Z,28.30
2018-07-31T19:15:41.425Z,28.20
2018-07-31T19:18:09.985Z,28.00
2018-07-31T19:20:39.186Z,27.90
2018-07-31T19:23:07.769Z,27.80
2018-07-31T19:25:36.403Z,27.70
2018-07-31T19:28:05.140Z,27.50
2018-07-31T19:30:33.620Z,27.30
2018-07-31T19:33:02.427Z,27.20
2018-07-31T19:35:31.237Z,27.10
2018-07-31T19:38:00.746Z,27.00
2018-07-31T19:40:29.939Z,26.80
2018-07-31T19:42:58.985Z,26.80
2018-07-31T19:45:27.606Z,26.80
2018-07-31T19:47:56.110Z,26.60
2018-07-31T19:50:25.165Z,26.60
2018-07-31T19:52:53.691Z,26.50
2018-07-31T19:55:23.268Z,26.50
2018-07-31T19:57:51.787Z,26.30
2018-07-31T20:00:20.830Z,26.30
2018-07-31T20:02:49.413Z,26.20
2018-07-31T20:05:17.965Z,26.10
2018-07-31T20:07:46.541Z,26.00
2018-07-31T20:10:15.893Z,26.10
2018-07-31T20:12:44.470Z,26.10
2018-07-31T20:15:13.227Z,26.10
2018-07-31T20:17:41.696Z,26.10
2018-07-31T20:20:10.302Z,25.90
2018-07-31T20:22:38.829Z,25.80
2018-07-31T20:25:07.406Z,25.80
2018-07-31T20:27:35.973Z,25.70
2018-07-31T20:30:05.901Z,25.60
2018-07-31T20:32:35.018Z,25.50
2018-07-31T20:35:03.633Z,25.50
2018-07-31T20:40:00.495Z,25.40
2018-07-31T20:44:57.307Z,25.10
2018-07-31T20:47:25.864Z,24.90
2018-07-31T20:49:54.475Z,24.80
2018-07-31T20:52:24.038Z,24.70
2018-07-31T20:54:52.729Z,24.60
2018-07-31T20:57:22.026Z,24.50
2018-07-31T21:02:19.624Z,24.50
2018-07-31T21:04:48.154Z,24.40
2018-07-31T21:07:17.233Z,24.40
2018-07-31T21:09:45.807Z,24.30
2018-07-31T21:12:14.346Z,24.40
2018-07-31T21:14:42.882Z,24.40
2018-07-31T21:17:11.918Z,24.20
2018-07-31T21:19:40.657Z,24.30
2018-07-31T21:22:10.324Z,24.30
2018-07-31T21:27:07.554Z,24.20
2018-07-31T21:29:37.266Z,24.10
2018-07-31T21:32:05.824Z,24.00
2018-07-31T21:34:34.625Z,23.80
2018-07-31T21:37:03.201Z,23.80
2018-07-31T21:39:32.145Z,23.80
2018-07-31T21:44:28.935Z,23.60
2018-07-31T21:46:58.379Z,23.50
2018-07-31T21:49:26.988Z,23.30
2018-07-31T21:51:55.589Z,23.30
2018-07-31T21:56:52.509Z,23.20
2018-07-31T21:59:21.295Z,23.10
2018-07-31T22:01:49.904Z,23.00
2018-07-31T22:04:18.437Z,23.00
2018-07-31T22:06:47.022Z,23.00
2018-07-31T22:09:15.574Z,22.90
2018-07-31T22:16:40.457Z,22.90
2018-07-31T22:19:09.033Z,23.00
2018-07-31T22:21:37.542Z,23.00
2018-07-31T22:24:06.127Z,23.00
2018-07-31T22:26:34.669Z,23.00
2018-07-31T22:29:03.244Z,22.90
2018-07-31T22:31:31.753Z,22.80
2018-07-31T22:34:00.333Z,22.80
2018-07-31T22:36:28.865Z,22.90
2018-07-31T22:38:57.426Z,22.90
2018-07-31T22:41:25.961Z,22.90
2018-07-31T22:43:54.498Z,22.80
2018-07-31T22:46:23.021Z,22.70
2018-07-31T22:48:51.765Z,22.50
2018-07-31T22:51:20.507Z,22.40
2018-07-31T22:53:49.033Z,22.40
2018-07-31T22:56:17.572Z,22.40
2018-07-31T22:58:46.090Z,22.40
2018-07-31T23:01:14.634Z,22.30
2018-07-31T23:03:43.132Z,22.40
2018-07-31T23:06:11.719Z,22.40
2018-07-31T23:08:40.238Z,22.40
2018-07-31T23:11:08.781Z,22.50
2018-07-31T23:13:37.780Z,22.40
2018-07-31T23:16:06.613Z,22.30
2018-07-31T23:18:35.133Z,22.30
2018-07-31T23:21:03.834Z,22.40
2018-07-31T23:23:32.401Z,22.40
2018-07-31T23:26:00.957Z,22.30
2018-07-31T23:28:29.491Z,22.20
2018-07-31T23:30:58.051Z,22.20
2018-07-31T23:33:26.649Z,22.10
2018-07-31T23:35:55.288Z,22.20
2018-07-31T23:38:23.817Z,22.10
2018-07-31T23:40:52.403Z,22.20
2018-07-31T23:43:20.925Z,22.20
2018-07-31T23:45:49.575Z,22.40
2018-07-31T23:48:18.166Z,22.30
2018-07-31T23:50:46.778Z,22.30
2018-07-31T23:53:15.542Z,22.40
2018-07-31T23:55:44.149Z,22.40
2018-07-31T23:58:13.520Z,22.30
